sensor_id;sensor_type;location;lat;lon;timestamp;P1;durP1;ratioP1;P2;durP2;ratioP2
16407;SDS011;8313;49.894;8.084;2022-07-17T00:02:07;1.80;;;1.70;;
16407;SDS011;8313;49.894;8.084;2022-07-17T00:04:33;2.10;;;1.33;;
16407;SDS011;8313;49.894;8.084;2022-07-17T00:06:58;3.57;;;1.70;;
16407;SDS011;8313;49.894;8.084;2022-07-17T00:09:24;2.33;;;1.50;;
16407;SDS011;8313;49.894;8.084;2022-07-17T00:11:50;2.50;;;1.93;;
16407;SDS011;8313;49.894;8.084;2022-07-17T00:14:15;3.07;;;1.70;;
16407;SDS011;8313;49.894;8.084;2022-07-17T00:16:41;2.17;;;1.50;;
16407;SDS011;8313;49.894;8.084;2022-07-17T00:19:07;2.93;;;1.53;;
16407;SDS011;8313;49.894;8.084;2022-07-17T00:21:32;2.20;;;1.60;;
16407;SDS011;8313;49.894;8.084;2022-07-17T00:23:58;1.90;;;1.43;;
16407;SDS011;8313;49.894;8.084;2022-07-17T00:26:24;3.03;;;1.77;;
16407;SDS011;8313;49.894;8.084;2022-07-17T00:28:49;1.43;;;1.33;;
16407;SDS011;8313;49.894;8.084;2022-07-17T00:31:15;2.23;;;1.70;;
16407;SDS011;8313;49.894;8.084;2022-07-17T00:33:41;2.53;;;1.87;;
16407;SDS011;8313;49.894;8.084;2022-07-17T00:36:07;1.50;;;1.40;;
16407;SDS011;8313;49.894;8.084;2022-07-17T00:38:32;3.57;;;1.60;;
16407;SDS011;8313;49.894;8.084;2022-07-17T00:40:58;1.97;;;1.43;;
16407;SDS011;8313;49.894;8.084;2022-07-17T00:43:24;1.80;;;1.33;;
16407;SDS011;8313;49.894;8.084;2022-07-17T00:45:58;2.43;;;1.50;;
16407;SDS011;8313;49.894;8.084;2022-07-17T00:48:26;3.57;;;1.60;;
16407;SDS011;8313;49.894;8.084;2022-07-17T00:50:52;1.73;;;1.40;;
16407;SDS011;8313;49.894;8.084;2022-07-17T00:53:19;1.77;;;1.50;;
16407;SDS011;8313;49.894;8.084;2022-07-17T00:55:48;2.37;;;1.17;;
16407;SDS011;8313;49.894;8.084;2022-07-17T00:58:21;4.47;;;1.43;;
16407;SDS011;8313;49.894;8.084;2022-07-17T01:00:48;2.00;;;1.50;;
16407;SDS011;8313;49.894;8.084;2022-07-17T01:03:16;3.10;;;1.67;;
16407;SDS011;8313;49.894;8.084;2022-07-17T01:05:43;2.50;;;1.90;;
16407;SDS011;8313;49.894;8.084;2022-07-17T01:08:09;2.57;;;1.53;;
16407;SDS011;8313;49.894;8.084;2022-07-17T01:10:35;2.73;;;1.80;;
16407;SDS011;8313;49.894;8.084;2022-07-17T01:13:01;1.73;;;1.63;;
16407;SDS011;8313;49.894;8.084;2022-07-17T01:15:27;1.40;;;1.30;;
16407;SDS011;8313;49.894;8.084;2022-07-17T01:17:53;2.43;;;1.43;;
16407;SDS011;8313;49.894;8.084;2022-07-17T01:20:19;1.10;;;1.10;;
16407;SDS011;8313;49.894;8.084;2022-07-17T01:22:46;2.70;;;2.30;;
16407;SDS011;8313;49.894;8.084;2022-07-17T01:25:14;1.67;;;1.57;;
16407;SDS011;8313;49.894;8.084;2022-07-17T01:27:40;3.03;;;1.90;;
16407;SDS011;8313;49.894;8.084;2022-07-17T01:30:06;1.53;;;1.40;;
16407;SDS011;8313;49.894;8.084;2022-07-17T01:32:34;1.80;;;1.70;;
16407;SDS011;8313;49.894;8.084;2022-07-17T01:35:00;1.80;;;1.70;;
16407;SDS011;8313;49.894;8.084;2022-07-17T01:37:27;1.80;;;1.53;;
16407;SDS011;8313;49.894;8.084;2022-07-17T01:39:53;2.00;;;1.80;;
16407;SDS011;8313;49.894;8.084;2022-07-17T01:42:20;2.60;;;1.70;;
16407;SDS011;8313;49.894;8.084;2022-07-17T01:44:46;1.70;;;1.60;;
16407;SDS011;8313;49.894;8.084;2022-07-17T01:47:12;2.23;;;1.80;;
16407;SDS011;8313;49.894;8.084;2022-07-17T01:49:42;2.40;;;1.50;;
16407;SDS011;8313;49.894;8.084;2022-07-17T01:52:10;6.67;;;2.30;;
16407;SDS011;8313;49.894;8.084;2022-07-17T01:54:36;1.60;;;1.50;;
16407;SDS011;8313;49.894;8.084;2022-07-17T01:57:01;2.57;;;2.03;;
16407;SDS011;8313;49.894;8.084;2022-07-17T01:59:27;3.97;;;1.80;;
16407;SDS011;8313;49.894;8.084;2022-07-17T02:01:53;1.97;;;1.70;;
16407;SDS011;8313;49.894;8.084;2022-07-17T02:04:18;1.97;;;1.77;;
16407;SDS011;8313;49.894;8.084;2022-07-17T02:06:44;1.83;;;1.60;;
16407;SDS011;8313;49.894;8.084;2022-07-17T02:09:10;2.20;;;1.50;;
16407;SDS011;8313;49.894;8.084;2022-07-17T02:11:36;2.07;;;1.77;;
16407;SDS011;8313;49.894;8.084;2022-07-17T02:14:01;2.70;;;1.53;;
16407;SDS011;8313;49.894;8.084;2022-07-17T02:16:27;1.73;;;1.63;;
16407;SDS011;8313;49.894;8.084;2022-07-17T02:18:53;4.40;;;1.90;;
16407;SDS011;8313;49.894;8.084;2022-07-17T02:21:19;1.97;;;1.30;;
16407;SDS011;8313;49.894;8.084;2022-07-17T02:23:45;1.63;;;1.53;;
16407;SDS011;8313;49.894;8.084;2022-07-17T02:26:10;1.90;;;1.60;;
16407;SDS011;8313;49.894;8.084;2022-07-17T02:28:36;2.10;;;1.77;;
16407;SDS011;8313;49.894;8.084;2022-07-17T02:31:02;1.70;;;1.30;;
16407;SDS011;8313;49.894;8.084;2022-07-17T02:33:27;2.27;;;1.57;;
16407;SDS011;8313;49.894;8.084;2022-07-17T02:35:53;2.80;;;1.80;;
16407;SDS011;8313;49.894;8.084;2022-07-17T02:38:19;1.93;;;1.83;;
16407;SDS011;8313;49.894;8.084;2022-07-17T02:40:44;1.50;;;1.40;;
16407;SDS011;8313;49.894;8.084;2022-07-17T02:43:10;1.53;;;1.43;;
16407;SDS011;8313;49.894;8.084;2022-07-17T02:45:36;2.87;;;1.40;;
16407;SDS011;8313;49.894;8.084;2022-07-17T02:48:01;1.70;;;1.40;;
16407;SDS011;8313;49.894;8.084;2022-07-17T02:50:27;2.23;;;1.43;;
16407;SDS011;8313;49.894;8.084;2022-07-17T02:52:53;1.80;;;1.67;;
16407;SDS011;8313;49.894;8.084;2022-07-17T02:55:19;3.40;;;1.40;;
16407;SDS011;8313;49.894;8.084;2022-07-17T02:57:45;1.57;;;1.47;;
16407;SDS011;8313;49.894;8.084;2022-07-17T03:00:15;1.50;;;1.40;;
16407;SDS011;8313;49.894;8.084;2022-07-17T03:02:42;1.60;;;1.50;;
16407;SDS011;8313;49.894;8.084;2022-07-17T03:05:09;3.47;;;1.70;;
16407;SDS011;8313;49.894;8.084;2022-07-17T03:07:35;1.97;;;1.50;;
16407;SDS011;8313;49.894;8.084;2022-07-17T03:10:02;2.20;;;1.70;;
16407;SDS011;8313;49.894;8.084;2022-07-17T03:12:28;1.63;;;1.53;;
16407;SDS011;8313;49.894;8.084;2022-07-17T03:14:54;3.80;;;1.40;;
16407;SDS011;8313;49.894;8.084;2022-07-17T03:17:19;1.73;;;1.60;;
16407;SDS011;8313;49.894;8.084;2022-07-17T03:19:45;1.83;;;1.70;;
16407;SDS011;8313;49.894;8.084;2022-07-17T03:22:11;1.93;;;1.33;;
16407;SDS011;8313;49.894;8.084;2022-07-17T03:24:37;1.73;;;1.57;;
16407;SDS011;8313;49.894;8.084;2022-07-17T03:27:03;2.23;;;1.40;;
16407;SDS011;8313;49.894;8.084;2022-07-17T03:29:29;1.60;;;1.50;;
16407;SDS011;8313;49.894;8.084;2022-07-17T03:31:55;2.03;;;1.30;;
16407;SDS011;8313;49.894;8.084;2022-07-17T03:34:20;1.60;;;1.50;;
16407;SDS011;8313;49.894;8.084;2022-07-17T03:36:46;1.60;;;1.50;;
16407;SDS011;8313;49.894;8.084;2022-07-17T03:39:13;2.70;;;1.57;;
16407;SDS011;8313;49.894;8.084;2022-07-17T03:41:39;1.67;;;1.10;;
16407;SDS011;8313;49.894;8.084;2022-07-17T03:44:05;1.27;;;1.10;;
16407;SDS011;8313;49.894;8.084;2022-07-17T03:46:33;1.80;;;1.70;;
16407;SDS011;8313;49.894;8.084;2022-07-17T03:48:59;1.60;;;1.50;;
16407;SDS011;8313;49.894;8.084;2022-07-17T03:51:25;1.87;;;1.30;;
16407;SDS011;8313;49.894;8.084;2022-07-17T03:53:51;1.67;;;1.53;;
16407;SDS011;8313;49.894;8.084;2022-07-17T03:56:16;1.67;;;1.57;;
16407;SDS011;8313;49.894;8.084;2022-07-17T03:58:43;2.00;;;1.87;;
16407;SDS011;8313;49.894;8.084;2022-07-17T04:01:09;2.47;;;1.50;;
16407;SDS011;8313;49.894;8.084;2022-07-17T04:03:35;4.00;;;1.60;;
16407;SDS011;8313;49.894;8.084;2022-07-17T04:06:01;1.60;;;1.30;;
16407;SDS011;8313;49.894;8.084;2022-07-17T04:08:27;1.23;;;1.13;;
16407;SDS011;8313;49.894;8.084;2022-07-17T04:10:53;2.13;;;1.40;;
16407;SDS011;8313;49.894;8.084;2022-07-17T04:13:18;2.90;;;1.70;;
16407;SDS011;8313;49.894;8.084;2022-07-17T04:15:44;1.33;;;1.23;;
16407;SDS011;8313;49.894;8.084;2022-07-17T04:18:24;1.50;;;1.40;;
16407;SDS011;8313;49.894;8.084;2022-07-17T04:20:51;1.47;;;1.37;;
16407;SDS011;8313;49.894;8.084;2022-07-17T04:23:18;1.30;;;1.10;;
16407;SDS011;8313;49.894;8.084;2022-07-17T04:25:44;1.47;;;1.33;;
16407;SDS011;8313;49.894;8.084;2022-07-17T04:28:10;2.30;;;1.40;;
16407;SDS011;8313;49.894;8.084;2022-07-17T04:30:36;1.83;;;1.27;;
16407;SDS011;8313;49.894;8.084;2022-07-17T04:33:02;1.20;;;1.03;;
16407;SDS011;8313;49.894;8.084;2022-07-17T04:35:28;1.10;;;1.10;;
16407;SDS011;8313;49.894;8.084;2022-07-17T04:37:54;2.13;;;1.60;;
16407;SDS011;8313;49.894;8.084;2022-07-17T04:40:20;2.30;;;1.00;;
16407;SDS011;8313;49.894;8.084;2022-07-17T04:42:46;1.23;;;1.13;;
16407;SDS011;8313;49.894;8.084;2022-07-17T04:45:12;1.53;;;1.33;;
16407;SDS011;8313;49.894;8.084;2022-07-17T04:47:41;1.97;;;1.10;;
16407;SDS011;8313;49.894;8.084;2022-07-17T04:50:07;1.57;;;1.27;;
16407;SDS011;8313;49.894;8.084;2022-07-17T04:52:34;1.63;;;1.53;;
16407;SDS011;8313;49.894;8.084;2022-07-17T04:55:00;1.10;;;1.00;;
16407;SDS011;8313;49.894;8.084;2022-07-17T04:57:25;3.07;;;1.50;;
16407;SDS011;8313;49.894;8.084;2022-07-17T04:59:51;1.23;;;1.13;;
16407;SDS011;8313;49.894;8.084;2022-07-17T05:02:17;1.40;;;1.30;;
16407;SDS011;8313;49.894;8.084;2022-07-17T05:04:43;1.30;;;1.20;;
16407;SDS011;8313;49.894;8.084;2022-07-17T05:07:09;1.90;;;0.97;;
16407;SDS011;8313;49.894;8.084;2022-07-17T05:09:34;2.27;;;1.40;;
16407;SDS011;8313;49.894;8.084;2022-07-17T05:12:00;2.40;;;1.43;;
16407;SDS011;8313;49.894;8.084;2022-07-17T05:14:26;1.37;;;1.27;;
16407;SDS011;8313;49.894;8.084;2022-07-17T05:16:52;1.27;;;1.20;;
16407;SDS011;8313;49.894;8.084;2022-07-17T05:19:18;1.73;;;1.40;;
16407;SDS011;8313;49.894;8.084;2022-07-17T05:21:43;5.53;;;1.40;;
16407;SDS011;8313;49.894;8.084;2022-07-17T05:24:09;2.20;;;1.30;;
16407;SDS011;8313;49.894;8.084;2022-07-17T05:26:35;2.97;;;1.50;;
16407;SDS011;8313;49.894;8.084;2022-07-17T05:29:01;1.33;;;1.23;;
16407;SDS011;8313;49.894;8.084;2022-07-17T05:31:27;1.20;;;1.10;;
16407;SDS011;8313;49.894;8.084;2022-07-17T05:33:52;1.53;;;1.30;;
16407;SDS011;8313;49.894;8.084;2022-07-17T05:36:18;2.57;;;1.33;;
16407;SDS011;8313;49.894;8.084;2022-07-17T05:38:44;2.80;;;1.30;;
16407;SDS011;8313;49.894;8.084;2022-07-17T05:41:09;5.13;;;1.83;;
16407;SDS011;8313;49.894;8.084;2022-07-17T05:43:35;1.43;;;1.33;;
16407;SDS011;8313;49.894;8.084;2022-07-17T05:46:01;2.10;;;1.50;;
16407;SDS011;8313;49.894;8.084;2022-07-17T05:48:27;1.73;;;1.60;;
16407;SDS011;8313;49.894;8.084;2022-07-17T05:50:55;2.07;;;1.47;;
16407;SDS011;8313;49.894;8.084;2022-07-17T05:53:20;1.20;;;1.10;;
16407;SDS011;8313;49.894;8.084;2022-07-17T05:55:46;2.73;;;1.10;;
16407;SDS011;8313;49.894;8.084;2022-07-17T05:58:12;3.10;;;1.80;;
16407;SDS011;8313;49.894;8.084;2022-07-17T06:00:37;2.13;;;1.00;;
16407;SDS011;8313;49.894;8.084;2022-07-17T06:03:03;1.30;;;1.20;;
16407;SDS011;8313;49.894;8.084;2022-07-17T06:05:29;1.37;;;1.27;;
16407;SDS011;8313;49.894;8.084;2022-07-17T06:07:55;4.10;;;1.10;;
16407;SDS011;8313;49.894;8.084;2022-07-17T06:10:22;3.03;;;1.17;;
16407;SDS011;8313;49.894;8.084;2022-07-17T06:12:49;1.63;;;1.53;;
16407;SDS011;8313;49.894;8.084;2022-07-17T06:15:17;1.00;;;1.00;;
16407;SDS011;8313;49.894;8.084;2022-07-17T06:17:43;1.53;;;1.43;;
16407;SDS011;8313;49.894;8.084;2022-07-17T06:20:09;1.43;;;1.20;;
16407;SDS011;8313;49.894;8.084;2022-07-17T06:22:35;1.20;;;1.10;;
16407;SDS011;8313;49.894;8.084;2022-07-17T06:25:00;1.33;;;1.03;;
16407;SDS011;8313;49.894;8.084;2022-07-17T06:27:26;1.77;;;1.13;;
16407;SDS011;8313;49.894;8.084;2022-07-17T06:29:52;1.73;;;1.20;;
16407;SDS011;8313;49.894;8.084;2022-07-17T06:32:17;1.20;;;1.10;;
16407;SDS011;8313;49.894;8.084;2022-07-17T06:34:43;1.20;;;1.10;;
16407;SDS011;8313;49.894;8.084;2022-07-17T06:37:09;1.37;;;1.27;;
16407;SDS011;8313;49.894;8.084;2022-07-17T06:39:34;3.17;;;1.30;;
16407;SDS011;8313;49.894;8.084;2022-07-17T06:42:00;2.07;;;1.27;;
16407;SDS011;8313;49.894;8.084;2022-07-17T06:44:26;3.33;;;1.30;;
16407;SDS011;8313;49.894;8.084;2022-07-17T06:46:52;1.40;;;1.10;;
16407;SDS011;8313;49.894;8.084;2022-07-17T06:49:18;1.40;;;1.13;;
16407;SDS011;8313;49.894;8.084;2022-07-17T06:51:43;1.93;;;1.30;;
16407;SDS011;8313;49.894;8.084;2022-07-17T06:54:11;2.60;;;1.40;;
16407;SDS011;8313;49.894;8.084;2022-07-17T06:56:37;2.23;;;1.30;;
16407;SDS011;8313;49.894;8.084;2022-07-17T06:59:03;1.63;;;1.40;;
16407;SDS011;8313;49.894;8.084;2022-07-17T07:01:32;2.20;;;1.13;;
16407;SDS011;8313;49.894;8.084;2022-07-17T07:03:59;1.57;;;1.40;;
16407;SDS011;8313;49.894;8.084;2022-07-17T07:06:25;2.20;;;1.33;;
16407;SDS011;8313;49.894;8.084;2022-07-17T07:08:51;2.77;;;1.43;;
16407;SDS011;8313;49.894;8.084;2022-07-17T07:11:16;1.53;;;1.10;;
16407;SDS011;8313;49.894;8.084;2022-07-17T07:13:42;5.37;;;1.63;;
16407;SDS011;8313;49.894;8.084;2022-07-17T07:16:08;1.97;;;1.60;;
16407;SDS011;8313;49.894;8.084;2022-07-17T07:18:33;1.80;;;1.30;;
16407;SDS011;8313;49.894;8.084;2022-07-17T07:20:59;2.67;;;1.40;;
16407;SDS011;8313;49.894;8.084;2022-07-17T07:23:25;4.80;;;1.83;;
16407;SDS011;8313;49.894;8.084;2022-07-17T07:25:51;2.93;;;1.40;;
16407;SDS011;8313;49.894;8.084;2022-07-17T07:28:16;1.93;;;1.23;;
16407;SDS011;8313;49.894;8.084;2022-07-17T07:30:43;3.40;;;1.50;;
16407;SDS011;8313;49.894;8.084;2022-07-17T07:33:09;1.83;;;1.57;;
16407;SDS011;8313;49.894;8.084;2022-07-17T07:35:34;1.97;;;1.30;;
16407;SDS011;8313;49.894;8.084;2022-07-17T07:38:01;2.27;;;1.40;;
16407;SDS011;8313;49.894;8.084;2022-07-17T07:40:28;2.57;;;1.50;;
16407;SDS011;8313;49.894;8.084;2022-07-17T07:42:53;1.60;;;1.50;;
16407;SDS011;8313;49.894;8.084;2022-07-17T07:45:19;2.00;;;1.13;;
16407;SDS011;8313;49.894;8.084;2022-07-17T07:47:46;1.80;;;1.30;;
16407;SDS011;8313;49.894;8.084;2022-07-17T07:50:13;1.67;;;1.20;;
16407;SDS011;8313;49.894;8.084;2022-07-17T07:52:39;1.93;;;1.67;;
16407;SDS011;8313;49.894;8.084;2022-07-17T07:55:06;5.40;;;1.90;;
16407;SDS011;8313;49.894;8.084;2022-07-17T07:57:33;1.73;;;1.50;;
16407;SDS011;8313;49.894;8.084;2022-07-17T07:59:59;1.80;;;1.70;;
16407;SDS011;8313;49.894;8.084;2022-07-17T08:02:25;4.50;;;1.90;;
16407;SDS011;8313;49.894;8.084;2022-07-17T08:04:50;4.10;;;1.50;;
16407;SDS011;8313;49.894;8.084;2022-07-17T08:07:16;3.03;;;1.83;;
16407;SDS011;8313;49.894;8.084;2022-07-17T08:09:42;2.70;;;1.73;;
16407;SDS011;8313;49.894;8.084;2022-07-17T08:12:08;2.60;;;1.50;;
16407;SDS011;8313;49.894;8.084;2022-07-17T08:14:33;1.73;;;1.63;;
16407;SDS011;8313;49.894;8.084;2022-07-17T08:16:59;2.27;;;1.60;;
16407;SDS011;8313;49.894;8.084;2022-07-17T08:19:24;1.40;;;1.30;;
16407;SDS011;8313;49.894;8.084;2022-07-17T08:21:50;2.40;;;1.17;;
16407;SDS011;8313;49.894;8.084;2022-07-17T08:24:16;2.57;;;1.60;;
16407;SDS011;8313;49.894;8.084;2022-07-17T08:26:42;1.33;;;1.23;;
16407;SDS011;8313;49.894;8.084;2022-07-17T08:29:08;1.53;;;1.23;;
16407;SDS011;8313;49.894;8.084;2022-07-17T08:31:34;2.90;;;1.30;;
16407;SDS011;8313;49.894;8.084;2022-07-17T08:33:59;3.00;;;1.70;;
16407;SDS011;8313;49.894;8.084;2022-07-17T08:36:25;3.60;;;1.63;;
16407;SDS011;8313;49.894;8.084;2022-07-17T08:38:51;4.73;;;1.20;;
16407;SDS011;8313;49.894;8.084;2022-07-17T08:41:17;1.93;;;1.50;;
16407;SDS011;8313;49.894;8.084;2022-07-17T08:43:46;1.53;;;1.43;;
16407;SDS011;8313;49.894;8.084;2022-07-17T08:46:16;1.40;;;1.30;;
16407;SDS011;8313;49.894;8.084;2022-07-17T08:48:44;1.47;;;1.37;;
16407;SDS011;8313;49.894;8.084;2022-07-17T08:51:10;5.20;;;2.90;;
16407;SDS011;8313;49.894;8.084;2022-07-17T08:53:37;2.70;;;1.30;;
16407;SDS011;8313;49.894;8.084;2022-07-17T08:56:03;2.53;;;1.80;;
16407;SDS011;8313;49.894;8.084;2022-07-17T08:58:29;1.20;;;1.10;;
16407;SDS011;8313;49.894;8.084;2022-07-17T09:00:55;1.70;;;1.60;;
16407;SDS011;8313;49.894;8.084;2022-07-17T09:03:20;1.47;;;1.30;;
16407;SDS011;8313;49.894;8.084;2022-07-17T09:05:48;2.40;;;1.60;;
16407;SDS011;8313;49.894;8.084;2022-07-17T09:08:21;4.57;;;1.73;;
16407;SDS011;8313;49.894;8.084;2022-07-17T09:10:49;2.07;;;1.53;;
16407;SDS011;8313;49.894;8.084;2022-07-17T09:15:46;2.63;;;1.20;;
16407;SDS011;8313;49.894;8.084;2022-07-17T09:18:13;1.27;;;1.17;;
16407;SDS011;8313;49.894;8.084;2022-07-17T09:20:49;5.10;;;1.30;;
16407;SDS011;8313;49.894;8.084;2022-07-17T09:23:17;1.40;;;1.30;;
16407;SDS011;8313;49.894;8.084;2022-07-17T09:25:44;4.40;;;1.40;;
16407;SDS011;8313;49.894;8.084;2022-07-17T09:28:12;1.73;;;1.60;;
16407;SDS011;8313;49.894;8.084;2022-07-17T09:30:40;1.47;;;1.20;;
16407;SDS011;8313;49.894;8.084;2022-07-17T09:33:14;1.40;;;1.30;;
16407;SDS011;8313;49.894;8.084;2022-07-17T09:38:29;1.63;;;1.23;;
16407;SDS011;8313;49.894;8.084;2022-07-17T09:43:54;3.50;;;3.20;;
16407;SDS011;8313;49.894;8.084;2022-07-17T09:46:25;1.30;;;1.20;;
16407;SDS011;8313;49.894;8.084;2022-07-17T09:48:56;1.93;;;1.67;;
16407;SDS011;8313;49.894;8.084;2022-07-17T09:51:28;3.10;;;1.70;;
16407;SDS011;8313;49.894;8.084;2022-07-17T09:53:59;1.30;;;1.20;;
16407;SDS011;8313;49.894;8.084;2022-07-17T09:56:28;2.60;;;1.40;;
16407;SDS011;8313;49.894;8.084;2022-07-17T09:59:05;1.40;;;1.07;;
16407;SDS011;8313;49.894;8.084;2022-07-17T10:01:33;1.70;;;1.60;;
16407;SDS011;8313;49.894;8.084;2022-07-17T10:04:00;1.50;;;1.40;;
16407;SDS011;8313;49.894;8.084;2022-07-17T10:06:26;2.07;;;1.40;;
16407;SDS011;8313;49.894;8.084;2022-07-17T10:08:54;2.30;;;1.60;;
16407;SDS011;8313;49.894;8.084;2022-07-17T10:11:21;3.77;;;2.30;;
16407;SDS011;8313;49.894;8.084;2022-07-17T10:13:52;1.20;;;1.20;;
16407;SDS011;8313;49.894;8.084;2022-07-17T10:16:23;2.50;;;1.50;;
16407;SDS011;8313;49.894;8.084;2022-07-17T10:18:51;1.03;;;1.03;;
16407;SDS011;8313;49.894;8.084;2022-07-17T10:21:20;1.70;;;1.57;;
16407;SDS011;8313;49.894;8.084;2022-07-17T10:24:08;1.73;;;1.57;;
16407;SDS011;8313;49.894;8.084;2022-07-17T10:29:06;2.90;;;1.70;;
16407;SDS011;8313;49.894;8.084;2022-07-17T10:31:33;3.00;;;1.43;;
16407;SDS011;8313;49.894;8.084;2022-07-17T10:34:00;1.57;;;1.40;;
16407;SDS011;8313;49.894;8.084;2022-07-17T10:36:46;2.92;;;1.88;;
16407;SDS011;8313;49.894;8.084;2022-07-17T10:39:16;1.60;;;1.50;;
16407;SDS011;8313;49.894;8.084;2022-07-17T10:41:55;5.00;;;1.80;;
16407;SDS011;8313;49.894;8.084;2022-07-17T10:44:25;3.03;;;1.67;;
16407;SDS011;8313;49.894;8.084;2022-07-17T10:46:53;1.33;;;1.23;;
16407;SDS011;8313;49.894;8.084;2022-07-17T10:49:19;2.17;;;1.30;;
16407;SDS011;8313;49.894;8.084;2022-07-17T10:51:46;1.67;;;1.35;;
16407;SDS011;8313;49.894;8.084;2022-07-17T10:54:11;1.92;;;1.70;;
16407;SDS011;8313;49.894;8.084;2022-07-17T10:56:38;3.08;;;2.35;;
16407;SDS011;8313;49.894;8.084;2022-07-17T10:59:09;2.80;;;2.45;;
16407;SDS011;8313;49.894;8.084;2022-07-17T11:01:35;2.42;;;2.17;;
16407;SDS011;8313;49.894;8.084;2022-07-17T11:04:02;3.25;;;3.05;;
16407;SDS011;8313;49.894;8.084;2022-07-17T11:06:33;2.67;;;2.38;;
16407;SDS011;8313;49.894;8.084;2022-07-17T11:09:02;4.05;;;2.92;;
16407;SDS011;8313;49.894;8.084;2022-07-17T11:14:14;2.70;;;2.50;;
16407;SDS011;8313;49.894;8.084;2022-07-17T11:16:59;4.65;;;4.25;;
16407;SDS011;8313;49.894;8.084;2022-07-17T11:19:28;14.00;;;12.77;;
16407;SDS011;8313;49.894;8.084;2022-07-17T11:21:56;9.07;;;8.32;;
16407;SDS011;8313;49.894;8.084;2022-07-17T11:24:23;4.55;;;4.15;;
16407;SDS011;8313;49.894;8.084;2022-07-17T11:26:52;3.40;;;3.20;;
16407;SDS011;8313;49.894;8.084;2022-07-17T11:29:18;3.78;;;2.83;;
16407;SDS011;8313;49.894;8.084;2022-07-17T11:31:44;2.35;;;2.15;;
16407;SDS011;8313;49.894;8.084;2022-07-17T11:34:10;2.53;;;2.25;;
16407;SDS011;8313;49.894;8.084;2022-07-17T11:39:06;1.55;;;1.45;;
16407;SDS011;8313;49.894;8.084;2022-07-17T11:41:44;3.35;;;2.30;;
16407;SDS011;8313;49.894;8.084;2022-07-17T11:44:18;1.88;;;1.77;;
16407;SDS011;8313;49.894;8.084;2022-07-17T11:46:45;2.42;;;1.70;;
16407;SDS011;8313;49.894;8.084;2022-07-17T11:51:56;1.50;;;1.33;;
16407;SDS011;8313;49.894;8.084;2022-07-17T11:54:23;2.72;;;1.77;;
16407;SDS011;8313;49.894;8.084;2022-07-17T11:56:54;1.42;;;1.33;;
16407;SDS011;8313;49.894;8.084;2022-07-17T11:59:26;3.28;;;1.40;;
16407;SDS011;8313;49.894;8.084;2022-07-17T12:01:56;2.00;;;1.90;;
16407;SDS011;8313;49.894;8.084;2022-07-17T12:04:31;2.30;;;1.60;;
16407;SDS011;8313;49.894;8.084;2022-07-17T12:07:00;1.88;;;1.27;;
16407;SDS011;8313;49.894;8.084;2022-07-17T12:09:28;2.85;;;1.50;;
16407;SDS011;8313;49.894;8.084;2022-07-17T12:11:58;2.67;;;1.50;;
16407;SDS011;8313;49.894;8.084;2022-07-17T12:14:24;1.58;;;1.48;;
16407;SDS011;8313;49.894;8.084;2022-07-17T12:16:50;2.75;;;2.10;;
16407;SDS011;8313;49.894;8.084;2022-07-17T12:19:17;2.67;;;1.52;;
16407;SDS011;8313;49.894;8.084;2022-07-17T12:24:26;1.60;;;1.50;;
16407;SDS011;8313;49.894;8.084;2022-07-17T12:27:01;1.80;;;1.70;;
16407;SDS011;8313;49.894;8.084;2022-07-17T12:29:29;1.70;;;1.60;;
16407;SDS011;8313;49.894;8.084;2022-07-17T12:32:08;1.15;;;1.05;;
16407;SDS011;8313;49.894;8.084;2022-07-17T12:34:36;7.85;;;1.58;;
16407;SDS011;8313;49.894;8.084;2022-07-17T12:37:10;2.85;;;1.42;;
16407;SDS011;8313;49.894;8.084;2022-07-17T12:39:36;2.00;;;1.85;;
16407;SDS011;8313;49.894;8.084;2022-07-17T12:42:02;3.85;;;1.30;;
16407;SDS011;8313;49.894;8.084;2022-07-17T12:44:28;1.58;;;1.48;;
16407;SDS011;8313;49.894;8.084;2022-07-17T12:46:54;4.13;;;1.55;;
16407;SDS011;8313;49.894;8.084;2022-07-17T12:49:20;1.23;;;1.20;;
16407;SDS011;8313;49.894;8.084;2022-07-17T12:51:46;1.58;;;1.48;;
16407;SDS011;8313;49.894;8.084;2022-07-17T12:54:12;1.45;;;1.35;;
16407;SDS011;8313;49.894;8.084;2022-07-17T12:56:37;2.65;;;1.65;;
16407;SDS011;8313;49.894;8.084;2022-07-17T12:59:03;1.40;;;1.30;;
16407;SDS011;8313;49.894;8.084;2022-07-17T13:01:29;3.63;;;1.48;;
16407;SDS011;8313;49.894;8.084;2022-07-17T13:03:55;1.45;;;1.35;;
16407;SDS011;8313;49.894;8.084;2022-07-17T13:06:21;2.95;;;1.60;;
16407;SDS011;8313;49.894;8.084;2022-07-17T13:08:46;1.70;;;1.60;;
16407;SDS011;8313;49.894;8.084;2022-07-17T13:11:12;1.55;;;1.45;;
16407;SDS011;8313;49.894;8.084;2022-07-17T13:13:38;1.70;;;1.60;;
16407;SDS011;8313;49.894;8.084;2022-07-17T13:16:04;1.60;;;1.50;;
16407;SDS011;8313;49.894;8.084;2022-07-17T13:18:30;1.67;;;1.52;;
16407;SDS011;8313;49.894;8.084;2022-07-17T13:20:55;1.95;;;1.40;;
16407;SDS011;8313;49.894;8.084;2022-07-17T13:23:21;2.85;;;1.45;;
16407;SDS011;8313;49.894;8.084;2022-07-17T13:25:47;2.33;;;1.80;;
16407;SDS011;8313;49.894;8.084;2022-07-17T13:28:12;4.60;;;1.50;;
16407;SDS011;8313;49.894;8.084;2022-07-17T13:30:38;2.13;;;1.60;;
16407;SDS011;8313;49.894;8.084;2022-07-17T13:33:04;1.92;;;1.42;;
16407;SDS011;8313;49.894;8.084;2022-07-17T13:35:30;2.53;;;1.67;;
16407;SDS011;8313;49.894;8.084;2022-07-17T13:37:56;1.67;;;1.58;;
16407;SDS011;8313;49.894;8.084;2022-07-17T13:40:22;1.70;;;1.60;;
16407;SDS011;8313;49.894;8.084;2022-07-17T13:42:50;2.30;;;2.10;;
16407;SDS011;8313;49.894;8.084;2022-07-17T13:45:16;2.85;;;1.73;;
16407;SDS011;8313;49.894;8.084;2022-07-17T13:47:42;1.83;;;1.73;;
16407;SDS011;8313;49.894;8.084;2022-07-17T13:50:08;2.90;;;1.42;;
16407;SDS011;8313;49.894;8.084;2022-07-17T13:52:35;2.42;;;2.30;;
16407;SDS011;8313;49.894;8.084;2022-07-17T13:55:02;1.55;;;1.40;;
16407;SDS011;8313;49.894;8.084;2022-07-17T13:57:29;1.48;;;1.38;;
16407;SDS011;8313;49.894;8.084;2022-07-17T13:59:55;1.77;;;1.67;;
16407;SDS011;8313;49.894;8.084;2022-07-17T14:02:22;1.60;;;1.50;;
16407;SDS011;8313;49.894;8.084;2022-07-17T14:04:47;1.35;;;1.25;;
16407;SDS011;8313;49.894;8.084;2022-07-17T14:07:13;3.15;;;1.90;;
16407;SDS011;8313;49.894;8.084;2022-07-17T14:09:39;1.92;;;1.80;;
16407;SDS011;8313;49.894;8.084;2022-07-17T14:12:05;3.85;;;2.10;;
16407;SDS011;8313;49.894;8.084;2022-07-17T14:14:31;1.60;;;1.50;;
16407;SDS011;8313;49.894;8.084;2022-07-17T14:16:57;1.88;;;1.70;;
16407;SDS011;8313;49.894;8.084;2022-07-17T14:19:23;3.92;;;1.75;;
16407;SDS011;8313;49.894;8.084;2022-07-17T14:21:48;1.85;;;1.73;;
16407;SDS011;8313;49.894;8.084;2022-07-17T14:24:14;1.75;;;1.65;;
16407;SDS011;8313;49.894;8.084;2022-07-17T14:26:40;1.45;;;1.35;;
16407;SDS011;8313;49.894;8.084;2022-07-17T14:29:08;1.60;;;1.50;;
16407;SDS011;8313;49.894;8.084;2022-07-17T14:31:34;3.03;;;1.73;;
16407;SDS011;8313;49.894;8.084;2022-07-17T14:34:00;1.50;;;1.40;;
16407;SDS011;8313;49.894;8.084;2022-07-17T14:36:25;2.13;;;1.45;;
16407;SDS011;8313;49.894;8.084;2022-07-17T14:38:51;1.90;;;1.77;;
16407;SDS011;8313;49.894;8.084;2022-07-17T14:41:17;2.38;;;1.70;;
16407;SDS011;8313;49.894;8.084;2022-07-17T14:43:44;3.17;;;1.63;;
16407;SDS011;8313;49.894;8.084;2022-07-17T14:46:10;1.98;;;1.80;;
16407;SDS011;8313;49.894;8.084;2022-07-17T14:48:36;2.47;;;1.60;;
16407;SDS011;8313;49.894;8.084;2022-07-17T14:51:02;1.60;;;1.45;;
16407;SDS011;8313;49.894;8.084;2022-07-17T14:53:28;2.13;;;1.92;;
16407;SDS011;8313;49.894;8.084;2022-07-17T14:55:54;1.92;;;1.48;;
16407;SDS011;8313;49.894;8.084;2022-07-17T14:58:19;3.53;;;1.50;;
16407;SDS011;8313;49.894;8.084;2022-07-17T15:00:45;1.77;;;1.67;;
16407;SDS011;8313;49.894;8.084;2022-07-17T15:03:11;2.17;;;1.77;;
16407;SDS011;8313;49.894;8.084;2022-07-17T15:05:37;2.03;;;1.40;;
16407;SDS011;8313;49.894;8.084;2022-07-17T15:08:03;1.75;;;1.65;;
16407;SDS011;8313;49.894;8.084;2022-07-17T15:10:29;2.75;;;1.75;;
16407;SDS011;8313;49.894;8.084;2022-07-17T15:12:54;1.80;;;1.70;;
16407;SDS011;8313;49.894;8.084;2022-07-17T15:15:20;1.70;;;1.60;;
16407;SDS011;8313;49.894;8.084;2022-07-17T15:17:46;1.77;;;1.48;;
16407;SDS011;8313;49.894;8.084;2022-07-17T15:20:11;2.00;;;1.75;;